Time;durP1;ratioP1;P1;durP2;ratioP2;P2;SDS_P1;SDS_P2;PMS_P1;PMS_P2;Temp;Humidity;BMP_temperature;BMP_pressure;BME280_temperature;BME280_humidity;BME280_pressure;Samples;Min_cycle;Max_cycle;Signal;HPM_P1;HPM_P2
2021/05/16 00:00:25;;;;;;;11.52;2.30;;;8.60;99.90;;;7.80;92.30;96463.78;5069449;28;20083;-64
2021/05/16 00:02:53;;;;;;;10.57;2.38;;;8.60;99.90;;;7.86;92.07;96466.03;5084990;28;20399;-64
2021/05/16 00:05:24;;;;;;;9.60;2.17;;;8.60;99.90;;;7.91;91.99;96465.78;5082764;28;20040;-65
2021/05/16 00:07:52;;;;;;;11.07;2.33;;;8.60;99.90;;;7.81;92.50;96462.84;5077021;28;20127;-64
2021/05/16 00:10:22;;;;;;;10.23;1.98;;;8.70;99.90;;;7.82;92.53;96464.50;5068224;28;20044;-65
2021/05/16 00:12:50;;;;;;;7.57;1.75;;;8.70;99.90;;;7.91;92.21;96466.66;5055745;28;20515;-65
2021/05/16 00:15:20;;;;;;;12.38;2.10;;;8.70;99.90;;;7.89;91.88;96454.69;5076924;28;20043;-64
2021/05/16 00:17:47;;;;;;;10.15;2.08;;;8.70;99.90;;;7.88;92.18;96455.63;5088225;28;20044;-64
2021/05/16 00:20:20;;;;;;;7.97;1.50;;;8.70;99.90;;;7.84;91.92;96454.94;5074021;28;20047;-64
2021/05/16 00:22:47;;;;;;;;;;;8.70;99.90;;;7.90;91.96;96454.63;5070959;28;20489;-65
2021/05/16 00:25:17;;;;;;;7.93;1.90;;;8.70;99.90;;;7.73;92.17;96441.72;5078440;28;20008;-65
2021/05/16 00:27:45;;;;;;;10.82;1.80;;;8.60;99.90;;;7.78;92.45;96442.34;5069114;28;20098;-65
2021/05/16 00:30:16;;;;;;;11.25;1.42;;;8.70;99.90;;;7.71;92.80;96446.97;5068611;28;20037;-65
2021/05/16 00:32:46;;;;;;;6.47;1.25;;;8.60;99.90;;;7.81;92.45;96444.75;5082672;28;20416;-64
2021/05/16 00:35:17;;;;;;;6.38;1.40;;;8.60;99.90;;;7.74;92.75;96443.41;5088159;28;20047;-64
2021/05/16 00:37:45;;;;;;;7.20;1.50;;;8.60;99.90;;;7.74;92.90;96445.97;5080037;28;20416;-64
2021/05/16 00:40:13;;;;;;;6.95;1.20;;;8.70;99.90;;;7.81;92.30;96436.19;5082271;28;20113;-64
2021/05/16 00:42:40;;;;;;;6.35;1.55;;;8.60;99.90;;;7.79;91.83;96436.25;5079444;28;20064;-64
2021/05/16 00:45:24;;;;;;;5.88;1.00;;;8.60;99.90;;;7.79;92.25;96438.00;5074166;28;20079;-64
2021/05/16 00:48:03;;;;;;;9.75;1.42;;;8.70;99.90;;;7.81;91.83;96437.00;5078568;28;20515;-64
2021/05/16 00:50:46;;;;;;;6.78;1.08;;;8.60;99.90;;;7.75;91.79;96429.56;5087601;28;20059;-65
2021/05/16 00:53:14;;;;;;;;;;;8.60;99.90;;;7.65;91.98;96436.09;5072101;28;20032;-65
2021/05/16 00:55:41;;;;;;;8.13;1.10;;;8.60;99.90;;;7.62;92.04;96431.06;5078695;28;19939;-64
2021/05/16 00:58:09;;;;;;;4.00;0.73;;;8.60;99.90;;;7.69;91.96;96430.72;5068284;28;20044;-64
2021/05/16 01:00:41;;;;;;;4.38;0.82;;;8.50;99.90;;;7.78;91.53;96423.41;5084388;28;20049;-65
2021/05/16 01:03:11;;;;;;;7.10;1.30;;;8.50;99.90;;;7.68;91.93;96426.44;5100762;28;20040;-64
2021/05/16 01:05:42;;;;;;;6.22;0.98;;;8.50;99.90;;;7.70;91.69;96427.19;5073842;28;20045;-64
2021/05/16 01:08:11;;;;;;;5.03;0.77;;;8.40;99.90;;;7.63;92.14;96425.00;5081940;28;20051;-65
2021/05/16 01:10:38;;;;;;;9.77;1.17;;;8.40;99.90;;;7.67;91.87;96427.38;5085510;28;20044;-64
2021/05/16 01:13:08;;;;;;;5.47;0.90;;;8.40;99.90;;;7.45;93.10;96435.31;5078203;28;20097;-64
2021/05/16 01:15:38;;;;;;;3.88;0.80;;;8.40;99.90;;;7.54;92.37;96428.88;5065233;28;20041;-64
2021/05/16 01:18:06;;;;;;;2.58;0.70;;;8.40;99.90;;;7.58;92.25;96432.97;5083901;28;20097;-64
2021/05/16 01:20:38;;;;;;;2.60;0.63;;;8.50;99.90;;;7.69;91.96;96429.88;5087929;28;20054;-64
2021/05/16 01:23:07;;;;;;;3.70;0.60;;;8.50;99.90;;;7.67;91.64;96434.28;5083132;28;20060;-64
2021/05/16 01:25:44;;;;;;;4.30;0.70;;;8.50;99.90;;;7.68;92.39;96430.78;5080361;28;20117;-64
2021/05/16 01:28:14;;;;;;;2.47;0.95;;;8.50;99.90;;;7.72;91.99;96437.47;5084203;28;20423;-64
2021/05/16 01:30:43;;;;;;;3.80;0.73;;;8.50;99.90;;;7.69;92.03;96425.53;5072130;28;20064;-64
2021/05/16 01:33:11;;;;;;;4.30;0.85;;;8.50;99.90;;;7.75;92.16;96425.25;5078669;28;20389;-64
2021/05/16 01:35:39;;;;;;;5.30;1.10;;;8.60;99.90;;;7.70;91.79;96424.63;5080124;28;20143;-65
2021/05/16 01:38:08;;;;;;;5.93;0.80;;;8.60;99.90;;;7.69;92.19;96416.97;5073511;28;20079;-65
2021/05/16 01:40:40;;;;;;;3.50;0.68;;;8.60;99.90;;;7.79;92.02;96427.66;5088361;28;20078;-65
2021/05/16 01:43:10;;;;;;;4.22;0.68;;;8.60;99.90;;;7.92;91.54;96426.16;5074969;28;20143;-65
2021/05/16 01:45:38;;;;;;;4.93;1.05;;;8.60;99.90;;;7.89;91.35;96431.44;5078292;28;20537;-64
2021/05/16 01:48:05;;;;;;;3.72;0.75;;;8.60;99.90;;;7.85;91.74;96428.19;5077339;28;20052;-64
2021/05/16 01:50:36;;;;;;;3.65;0.80;;;8.70;99.90;;;7.97;91.54;96422.41;5070563;28;20043;-64
2021/05/16 01:53:06;;;;;;;4.72;0.80;;;8.70;99.90;;;7.81;92.65;96426.69;5053183;28;20078;-64
2021/05/16 01:55:35;;;;;;;5.68;1.10;;;8.80;99.90;;;7.94;92.15;96419.16;5083130;28;20115;-64
2021/05/16 01:58:03;;;;;;;4.35;1.00;;;8.80;99.90;;;8.01;92.29;96422.28;5075018;28;20048;-65
2021/05/16 02:00:40;;;;;;;3.92;1.05;;;8.80;99.90;;;7.93;92.81;96422.63;5068707;28;20073;-65
2021/05/16 02:03:07;;;;;;;3.72;0.75;;;8.80;99.90;;;7.96;92.91;96417.34;5073386;28;20040;-65
2021/05/16 02:05:35;;;;;;;3.58;0.60;;;8.70;99.90;;;7.95;92.89;96425.97;5086103;28;20048;-65
2021/05/16 02:08:04;;;;;;;4.40;0.77;;;8.70;99.90;;;7.95;92.61;96420.81;5106860;28;20109;-64
2021/05/16 02:10:31;;;;;;;8.27;1.60;;;8.70;99.90;;;7.96;93.05;96423.34;5074801;28;20202;-64
2021/05/16 02:12:58;;;;;;;3.70;0.80;;;8.70;99.90;;;7.93;93.62;96423.47;5079026;28;20052;-66
2021/05/16 02:15:25;;;;;;;5.40;1.35;;;8.70;99.90;;;8.01;93.34;96417.09;5074763;28;20044;-65
2021/05/16 02:17:55;;;;;;;4.38;0.80;;;8.80;99.90;;;8.06;93.38;96420.28;5084749;28;20043;-65
2021/05/16 02:20:22;;;;;;;5.05;1.17;;;8.80;99.90;;;8.04;93.36;96415.19;5072606;28;20047;-65
2021/05/16 02:22:49;;;;;;;4.20;1.13;;;8.80;99.90;;;8.04;93.17;96419.53;5064116;28;20044;-65
2021/05/16 02:25:16;;;;;;;3.40;1.00;;;8.80;99.90;;;7.98;93.70;96425.81;5072534;28;20399;-64
2021/05/16 02:27:47;;;;;;;6.15;1.30;;;8.90;99.90;;;8.05;93.52;96406.53;5070602;28;20063;-65
2021/05/16 02:30:16;;;;;;;6.80;1.50;;;8.90;99.90;;;7.95;94.21;96410.47;5065104;28;20083;-64
2021/05/16 02:32:44;;;;;;;8.40;1.30;;;8.90;99.90;;;8.06;93.61;96399.59;5080419;28;20036;-65
2021/05/16 02:35:13;;;;;;;5.50;1.33;;;8.90;99.90;;;7.93;94.76;96418.28;5072854;28;20040;-65
2021/05/16 02:37:40;;;;;;;6.38;1.42;;;9.00;99.90;;;8.13;93.45;96421.63;5067748;28;20048;-65
2021/05/16 02:40:09;;;;;;;5.43;1.10;;;9.00;99.90;;;8.15;93.03;96409.47;5084093;28;20055;-64
2021/05/16 02:42:36;;;;;;;4.07;1.20;;;8.90;99.90;;;8.09;94.03;96414.94;5083995;28;20210;-65
2021/05/16 02:45:04;;;;;;;6.20;1.40;;;9.00;99.90;;;8.03;94.20;96418.69;5082574;28;20039;-64
2021/05/16 02:47:31;;;;;;;3.60;1.25;;;9.00;99.90;;;8.14;93.64;96424.16;5084463;28;20051;-65
2021/05/16 02:49:58;;;;;;;3.90;1.25;;;9.00;99.90;;;8.07;94.76;96411.59;5081273;28;20094;-65
2021/05/16 02:52:25;;;;;;;3.78;1.00;;;9.00;99.90;;;8.09;94.40;96404.59;5081961;28;20456;-65
2021/05/16 02:54:52;;;;;;;3.75;1.25;;;9.00;99.90;;;8.05;94.29;96413.41;5087732;28;20048;-65
2021/05/16 02:57:21;;;;;;;6.72;1.33;;;8.90;99.90;;;8.11;94.08;96413.94;5096779;28;20048;-65
2021/05/16 02:59:49;;;;;;;5.65;1.08;;;8.90;99.90;;;8.13;94.22;96412.13;5070643;28;20045;-65
2021/05/16 03:02:16;;;;;;;3.85;0.98;;;8.90;99.90;;;8.11;93.95;96413.13;5078182;28;20098;-64
2021/05/16 03:04:44;;;;;;;3.60;1.00;;;9.00;99.90;;;8.15;93.96;96393.97;5061758;28;20117;-65
2021/05/16 03:07:11;;;;;;;2.92;0.95;;;9.00;99.90;;;8.29;93.16;96403.56;5082944;28;20051;-65
2021/05/16 03:09:38;;;;;;;5.40;1.30;;;9.00;99.90;;;8.20;93.94;96398.88;5075825;28;20053;-64
2021/05/16 03:12:07;;;;;;;5.75;1.63;;;9.00;99.90;;;8.18;93.82;96394.63;5081264;28;20067;-64
2021/05/16 03:14:35;;;;;;;3.45;1.20;;;9.00;99.90;;;8.28;93.00;96395.00;5068631;28;20048;-65
2021/05/16 03:17:02;;;;;;;4.97;1.35;;;9.00;99.90;;;8.21;93.74;96392.78;5069475;28;20321;-65
2021/05/16 03:19:30;;;;;;;6.25;1.30;;;9.00;99.90;;;8.30;93.80;96402.66;5069104;28;20500;-64
2021/05/16 03:22:00;;;;;;;6.30;1.42;;;9.00;99.90;;;8.23;94.38;96398.72;5081867;28;20573;-65
2021/05/16 03:24:29;;;;;;;4.45;1.55;;;9.10;99.90;;;8.20;94.19;96397.13;5105510;28;20054;-65
2021/05/16 03:26:56;;;;;;;4.45;1.50;;;9.10;99.90;;;8.22;94.50;96405.66;5078572;28;20044;-65
2021/05/16 03:29:23;;;;;;;4.45;1.70;;;9.10;99.90;;;8.28;94.24;96405.34;5082330;28;20044;-65
2021/05/16 03:31:50;;;;;;;2.95;1.48;;;9.10;99.90;;;8.31;93.77;96412.09;5078669;28;20113;-64
2021/05/16 03:34:17;;;;;;;3.92;1.30;;;9.10;99.90;;;8.27;93.68;96414.00;5071888;28;20087;-65
2021/05/16 03:36:44;;;;;;;6.07;1.70;;;9.10;99.90;;;8.24;94.25;96411.56;5076722;28;20055;-65
2021/05/16 03:39:11;;;;;;;3.53;1.60;;;9.20;99.90;;;8.26;94.13;96409.75;5079921;28;20040;-65
2021/05/16 03:41:38;;;;;;;7.07;1.42;;;9.10;99.90;;;8.29;93.18;96396.66;5081187;28;20311;-65
2021/05/16 03:44:06;;;;;;;4.57;1.70;;;9.20;99.90;;;8.23;93.73;96406.47;5080836;28;20044;-65
2021/05/16 03:46:33;;;;;;;3.40;1.38;;;9.20;99.90;;;8.31;93.06;96405.16;5075695;28;20049;-64
2021/05/16 03:49:01;;;;;;;6.38;1.60;;;9.20;99.90;;;8.24;92.90;96411.56;5066486;28;20069;-65
2021/05/16 03:51:28;;;;;;;4.47;1.30;;;9.10;99.90;;;8.21;93.32;96403.13;5070414;28;20045;-65
2021/05/16 03:53:55;;;;;;;4.97;1.40;;;9.10;99.90;;;8.21;93.00;96409.16;5084266;28;20094;-65
2021/05/16 03:56:22;;;;;;;4.30;1.35;;;9.20;99.90;;;8.29;92.53;96411.34;5074995;28;20033;-64
2021/05/16 03:58:49;;;;;;;3.20;1.33;;;9.20;99.90;;;8.33;92.23;96403.34;5071951;28;20301;-64
2021/05/16 04:01:16;;;;;;;2.72;1.38;;;9.10;99.90;;;8.37;91.97;96404.03;5080773;28;20036;-64
2021/05/16 04:03:43;;;;;;;8.52;2.00;;;9.10;99.90;;;8.28;92.69;96400.16;5068804;28;20041;-65
2021/05/16 04:06:10;;;;;;;7.78;2.03;;;9.20;99.90;;;8.28;92.33;96407.91;5069694;28;20041;-65
2021/05/16 04:08:37;;;;;;;6.63;1.77;;;9.20;99.90;;;8.31;91.98;96409.50;5069643;28;20096;-65
2021/05/16 04:11:04;;;;;;;7.30;1.60;;;9.20;99.90;;;8.32;92.85;96401.66;5070248;28;20041;-65
2021/05/16 04:13:31;;;;;;;9.82;1.80;;;9.30;99.90;;;8.28;92.99;96402.75;5078487;28;20044;-64
2021/05/16 04:15:58;;;;;;;7.78;1.70;;;9.20;99.90;;;8.44;91.91;96395.06;5077851;28;20101;-65
2021/05/16 04:18:25;;;;;;;7.90;1.33;;;9.20;99.90;;;8.43;91.69;96393.38;5075513;28;20048;-65
2021/05/16 04:20:53;;;;;;;5.70;1.48;;;9.20;99.90;;;8.50;91.44;96399.06;5087904;28;20528;-65
2021/05/16 04:23:20;;;;;;;7.53;1.50;;;9.20;99.90;;;8.45;91.19;96401.06;5068887;28;20058;-64
2021/05/16 04:25:47;;;;;;;3.55;1.25;;;9.20;99.90;;;8.53;90.59;96402.31;5074909;28;20089;-64
2021/05/16 04:28:14;;;;;;;7.20;1.65;;;9.20;99.90;;;8.43;91.63;96408.88;5069222;28;20032;-64
2021/05/16 04:30:41;;;;;;;5.00;1.25;;;9.30;99.90;;;8.50;90.84;96409.41;5076349;28;20114;-65
2021/05/16 04:33:08;;;;;;;6.28;1.20;;;9.30;99.90;;;8.41;91.25;96408.13;5071703;28;20048;-65
2021/05/16 04:35:36;;;;;;;3.95;1.13;;;9.40;99.90;;;8.48;90.85;96398.28;5087211;28;20135;-64
2021/05/16 04:38:03;;;;;;;5.05;1.00;;;9.30;99.90;;;8.45;91.18;96411.41;5072225;28;20068;-65
2021/05/16 04:40:30;;;;;;;8.13;1.63;;;9.30;99.90;;;8.41;92.06;96399.53;5080203;28;20050;-65
2021/05/16 04:42:57;;;;;;;4.82;1.48;;;9.30;99.90;;;8.37;91.58;96420.38;5075139;28;20108;-65
2021/05/16 04:45:24;;;;;;;8.02;1.30;;;9.20;99.90;;;8.30;92.47;96413.00;5082554;28;20052;-65
2021/05/16 04:47:51;;;;;;;4.78;1.10;;;9.20;99.90;;;8.28;92.36;96425.16;5061700;28;20422;-65
2021/05/16 04:50:19;;;;;;;5.72;1.25;;;9.10;99.90;;;8.29;92.35;96413.91;5075939;28;20513;-65
2021/05/16 04:52:46;;;;;;;5.05;1.20;;;9.10;99.90;;;8.25;92.36;96408.06;5072321;28;20055;-65
2021/05/16 04:55:15;;;;;;;6.25;0.95;;;9.00;99.90;;;8.23;93.12;96407.31;5071285;28;20048;-65
2021/05/16 04:57:42;;;;;;;4.60;1.15;;;9.10;99.90;;;8.29;92.83;96416.50;5065523;28;20135;-65
2021/05/16 05:00:10;;;;;;;3.95;1.10;;;9.00;99.90;;;8.31;92.62;96419.84;5095086;28;20032;-65
2021/05/16 05:02:41;;;;;;;2.05;0.70;;;9.00;99.90;;;8.26;92.23;96414.91;5073532;28;20457;-65
2021/05/16 05:05:09;;;;;;;5.55;0.90;;;9.00;99.90;;;8.26;92.03;96420.09;5082111;28;20060;-65
2021/05/16 05:07:36;;;;;;;7.10;1.25;;;9.00;99.90;;;8.15;93.34;96424.97;5077663;28;20048;-65
2021/05/16 05:10:07;;;;;;;6.80;1.02;;;9.00;99.90;;;8.18;93.46;96435.16;5070603;28;20118;-65
2021/05/16 05:12:34;;;;;;;5.45;1.30;;;9.00;99.90;;;8.32;93.13;96419.75;5084513;28;20411;-65
2021/05/16 05:15:02;;;;;;;4.38;0.93;;;9.10;99.90;;;8.41;92.88;96433.97;5072628;28;20052;-64
2021/05/16 05:17:31;;;;;;;4.75;0.98;;;9.10;99.90;;;8.45;92.50;96421.75;5072483;28;20047;-65
2021/05/16 05:19:58;;;;;;;5.78;1.25;;;9.20;99.90;;;8.43;93.43;96428.75;5054538;28;20416;-65
2021/05/16 05:22:25;;;;;;;3.42;0.90;;;9.30;99.90;;;8.26;93.15;96442.53;5086142;28;20048;-65
2021/05/16 05:24:52;;;;;;;3.33;0.70;;;9.30;99.90;;;8.23;91.83;96430.56;5089078;28;20040;-66
2021/05/16 05:27:19;;;;;;;3.92;0.60;;;9.30;99.90;;;8.26;89.75;96434.78;5079654;28;20047;-65
2021/05/16 05:29:46;;;;;;;2.47;0.60;;;9.10;99.90;;;8.10;89.41;96430.38;5076396;28;20044;-65
2021/05/16 05:32:13;;;;;;;2.22;0.50;;;9.00;99.90;;;8.24;87.75;96427.09;5073457;28;20049;-65
2021/05/16 05:34:40;;;;;;;3.47;0.60;;;8.90;99.90;;;7.99;89.09;96439.59;5071654;28;20048;-65
2021/05/16 05:37:07;;;;;;;3.22;0.50;;;8.80;99.90;;;8.05;88.97;96434.09;5083756;28;20032;-65
2021/05/16 05:39:34;;;;;;;3.25;0.68;;;8.80;99.90;;;8.01;89.48;96430.03;5075483;28;20573;-65
2021/05/16 05:42:02;;;;;;;5.20;0.80;;;8.80;99.90;;;8.02;89.60;96423.94;5072674;28;20492;-65
2021/05/16 05:44:31;;;;;;;4.05;0.77;;;8.80;99.90;;;8.02;89.42;96431.69;5071521;28;20048;-65
2021/05/16 05:46:58;;;;;;;3.20;0.80;;;8.80;99.90;;;7.91;90.52;96442.53;5072923;28;20414;-65
2021/05/16 05:49:25;;;;;;;4.30;0.93;;;8.90;99.90;;;7.88;90.54;96435.78;5084933;28;20052;-65
2021/05/16 05:51:52;;;;;;;7.20;0.70;;;8.90;99.90;;;8.08;91.08;96426.22;5089549;28;20047;-65
2021/05/16 05:54:19;;;;;;;3.03;0.80;;;8.90;99.90;;;7.96;91.12;96430.25;5084145;28;20045;-65
2021/05/16 05:56:46;;;;;;;2.85;0.70;;;9.00;99.90;;;8.10;90.36;96434.72;5083293;28;20056;-66
2021/05/16 05:59:14;;;;;;;2.85;0.65;;;9.00;99.90;;;8.16;90.33;96429.22;5071403;28;20101;-65
2021/05/16 06:01:41;;;;;;;3.63;0.80;;;9.10;99.90;;;8.21;90.15;96429.84;5070913;28;20045;-65
2021/05/16 06:04:09;;;;;;;3.20;0.82;;;9.20;99.90;;;8.31;90.24;96433.59;5070817;28;20048;-65
2021/05/16 06:06:36;;;;;;;4.63;1.05;;;9.20;99.90;;;8.29;90.25;96430.25;5069727;28;20033;-65
2021/05/16 06:09:04;;;;;;;5.30;1.13;;;9.40;99.90;;;8.65;90.82;96433.63;5090129;28;20044;-64
2021/05/16 06:11:31;;;;;;;4.15;1.10;;;9.50;99.90;;;8.89;90.03;96432.28;5089933;28;20052;-65
2021/05/16 06:13:58;;;;;;;5.55;1.15;;;9.80;99.90;;;8.85;89.37;96427.38;5090472;28;20048;-65
2021/05/16 06:16:25;;;;;;;6.15;1.77;;;9.80;99.90;;;8.97;88.98;96434.47;5080456;28;20052;-65
2021/05/16 06:18:54;;;;;;;5.15;1.17;;;10.00;99.90;;;9.26;89.01;96429.44;5086642;28;20073;-64
2021/05/16 06:21:21;;;;;;;7.93;1.63;;;10.10;99.90;;;9.17;89.46;96429.03;5082771;28;20070;-65
2021/05/16 06:24:02;;;;;;;7.45;1.65;;;10.10;99.90;;;9.09;89.07;96420.84;5088668;28;20044;-65
2021/05/16 06:26:31;;;;;;;7.97;1.50;;;10.00;99.90;;;9.07;88.87;96434.81;5073776;28;20041;-65
2021/05/16 06:28:59;;;;;;;11.32;2.10;;;10.00;99.90;;;9.19;88.85;96429.81;5070628;28;20066;-65
2021/05/16 06:31:26;;;;;;;13.75;2.17;;;10.00;99.90;;;9.17;89.11;96430.81;5070134;28;20100;-65
2021/05/16 06:33:53;;;;;;;9.73;1.58;;;10.10;99.90;;;9.31;88.96;96436.03;5078173;28;20598;-65
2021/05/16 06:36:20;;;;;;;9.13;1.25;;;10.20;99.90;;;9.25;89.33;96444.16;5070061;28;20142;-65
2021/05/16 06:38:47;;;;;;;7.38;2.00;;;10.20;99.90;;;9.07;89.64;96448.56;5082209;28;20052;-65
2021/05/16 06:41:14;;;;;;;15.52;2.50;;;10.20;99.90;;;9.11;89.53;96431.97;5077282;28;20121;-65
2021/05/16 06:43:42;;;;;;;14.43;3.42;;;10.10;99.90;;;8.91;90.79;96450.34;5081720;28;20173;-65
2021/05/16 06:46:10;;;;;;;8.95;2.28;;;10.20;99.90;;;9.19;89.93;96450.50;5069444;28;20075;-65
2021/05/16 06:48:37;;;;;;;12.70;2.63;;;10.20;99.90;;;9.51;89.41;96440.13;5072505;28;20041;-65
2021/05/16 06:51:04;;;;;;;14.23;1.98;;;10.40;99.90;;;9.35;87.74;96436.69;5070429;28;20101;-65
2021/05/16 06:53:32;;;;;;;7.07;1.90;;;10.60;99.90;;;9.43;87.62;96419.81;5090619;28;20040;-65
2021/05/16 06:56:00;;;;;;;8.85;2.50;;;10.70;99.90;;;9.52;87.32;96435.75;5076974;28;20569;-65
2021/05/16 06:58:28;;;;;;;14.48;3.38;;;10.80;99.90;;;9.72;86.27;96426.84;5073905;28;20032;-65
2021/05/16 07:00:55;;;;;;;12.05;2.13;;;10.90;99.90;;;9.55;84.23;96435.56;5077466;28;20548;-65
2021/05/16 07:03:22;;;;;;;10.98;1.42;;;11.00;99.90;;;9.86;85.20;96428.66;5069807;28;20052;-65
2021/05/16 07:05:49;;;;;;;11.63;2.03;;;11.20;99.90;;;10.01;83.91;96427.72;5072691;28;20044;-65
2021/05/16 07:08:16;;;;;;;11.60;1.63;;;11.20;99.90;;;9.55;86.02;96459.72;5080079;28;20044;-65
2021/05/16 07:10:43;;;;;;;8.45;1.42;;;11.30;99.90;;;9.89;84.35;96456.97;5070086;28;20050;-65
2021/05/16 07:13:10;;;;;;;13.20;2.08;;;11.10;99.90;;;10.00;84.74;96434.69;5084782;28;20044;-65
2021/05/16 07:15:37;;;;;;;9.23;2.35;;;11.10;99.90;;;10.17;83.72;96443.22;5089372;28;20043;-65
2021/05/16 07:18:04;;;;;;;15.20;2.60;;;11.10;99.90;;;9.84;85.04;96447.69;5083777;28;20052;-65
2021/05/16 07:20:31;;;;;;;12.57;2.40;;;11.20;99.90;;;9.99;84.73;96435.63;5080626;28;20048;-65
2021/05/16 07:22:58;;;;;;;10.85;1.90;;;11.20;99.90;;;10.62;82.41;96429.28;5079931;28;20145;-65
2021/05/16 07:25:25;;;;;;;7.90;1.67;;;11.40;99.90;;;10.32;82.11;96437.16;5085462;28;20073;-65
2021/05/16 07:27:53;;;;;;;9.48;1.40;;;11.50;99.90;;;10.51;81.91;96439.47;5072927;28;20048;-65
2021/05/16 07:30:21;;;;;;;9.63;1.98;;;11.50;99.90;;;10.05;83.98;96437.00;5080631;28;20040;-65
2021/05/16 07:32:49;;;;;;;11.13;1.80;;;11.50;99.90;;;10.31;82.31;96425.13;5095744;28;20135;-66
2021/05/16 07:35:16;;;;;;;16.10;1.90;;;11.50;99.90;;;10.02;81.81;96448.41;5095064;28;20048;-65
2021/05/16 07:37:43;;;;;;;9.80;1.70;;;11.50;99.90;;;10.24;81.58;96442.78;5084092;28;20040;-65
2021/05/16 07:40:12;;;;;;;15.85;2.45;;;11.50;99.90;;;9.94;83.35;96445.41;5074410;28;20048;-65
2021/05/16 07:42:39;;;;;;;8.93;1.27;;;11.60;99.90;;;10.22;82.79;96444.63;5070907;28;20090;-64
2021/05/16 07:45:11;;;;;;;11.02;1.83;;;11.50;99.90;;;10.22;81.40;96441.22;5074090;28;20047;-65
2021/05/16 07:47:39;;;;;;;15.77;1.95;;;11.50;99.90;;;10.23;82.99;96430.72;5076722;28;20051;-65
2021/05/16 07:50:07;;;;;;;12.60;1.85;;;11.50;99.90;;;10.27;80.51;96444.38;5067765;28;20044;-65
2021/05/16 07:52:35;;;;;;;13.43;2.03;;;11.30;99.90;;;9.98;81.39;96448.66;5067959;28;20125;-65
2021/05/16 07:55:03;;;;;;;19.52;2.13;;;11.50;99.90;;;10.46;81.38;96444.13;5071266;28;20059;-64
2021/05/16 07:57:30;;;;;;;13.75;1.73;;;11.70;99.90;;;11.04;79.84;96432.75;5051178;28;20048;-65
2021/05/16 07:59:57;;;;;;;21.83;2.22;;;12.10;99.90;;;11.45;79.35;96429.31;5069694;28;20052;-65
2021/05/16 08:02:24;;;;;;;12.68;1.88;;;12.50;99.90;;;10.65;76.98;96447.28;5084846;28;20048;-65
2021/05/16 08:04:51;;;;;;;11.15;1.40;;;12.50;99.90;;;10.57;77.23;96439.13;5086988;28;20495;-65
2021/05/16 08:07:18;;;;;;;11.77;1.65;;;12.20;99.90;;;10.40;78.99;96453.13;5085849;28;20454;-65
2021/05/16 08:09:46;;;;;;;11.85;2.25;;;12.10;99.90;;;10.37;78.55;96445.50;5088127;28;20044;-65
2021/05/16 08:12:13;;;;;;;11.27;1.20;;;12.00;99.90;;;11.31;76.76;96431.94;5088137;28;20040;-65
2021/05/16 08:14:39;;;;;;;7.38;1.25;;;12.40;99.90;;;11.18;78.85;96425.88;5072569;28;20044;-65
2021/05/16 08:17:06;;;;;;;11.68;1.73;;;13.00;99.90;;;12.09;77.15;96424.25;5074582;28;20037;-65
2021/05/16 08:19:34;;;;;;;9.65;1.30;;;13.60;99.90;;;11.63;73.55;96423.81;5088472;28;20053;-65
2021/05/16 08:22:01;;;;;;;25.77;2.60;;;13.80;99.90;;;11.94;73.94;96422.69;5075097;28;20051;-65
2021/05/16 08:24:32;;;;;;;10.30;1.83;;;13.60;99.90;;;11.44;74.78;96421.59;5092600;28;20066;-65
2021/05/16 08:26:58;;;;;;;13.88;2.17;;;13.40;99.90;;;11.66;73.42;96413.25;5085946;28;20102;-65
2021/05/16 08:29:25;;;;;;;9.75;1.83;;;13.20;99.90;;;11.75;73.09;96430.00;5076728;28;20097;-65
2021/05/16 08:31:54;;;;;;;11.07;1.65;;;12.70;99.90;;;10.96;74.99;96423.78;5088383;28;20544;-65
2021/05/16 08:34:21;;;;;;;16.40;2.10;;;12.40;99.90;;;10.69;77.36;96437.53;5072181;28;20627;-65
2021/05/16 08:36:48;;;;;;;15.93;2.03;;;12.10;99.90;;;10.96;77.25;96428.97;5073937;28;20047;-65
2021/05/16 08:39:15;;;;;;;12.63;2.05;;;11.80;99.90;;;10.17;81.01;96446.69;5073344;28;20090;-65
2021/05/16 08:41:43;;;;;;;14.00;2.47;;;11.70;99.90;;;10.44;81.34;96433.81;5073087;28;20045;-65
2021/05/16 08:44:11;;;;;;;14.52;3.13;;;11.60;99.90;;;10.63;79.37;96432.72;5071973;28;20045;-65
2021/05/16 08:46:39;;;;;;;11.40;1.50;;;11.80;99.90;;;11.15;79.61;96426.88;5084974;28;20495;-65
2021/05/16 08:49:06;;;;;;;10.98;1.80;;;12.00;99.90;;;12.43;74.78;96432.38;5106256;28;20052;-65
2021/05/16 08:51:34;;;;;;;12.18;1.67;;;12.60;99.90;;;12.20;73.76;96435.69;5089780;28;20105;-65
2021/05/16 08:54:01;;;;;;;13.88;1.73;;;13.40;99.90;;;13.13;72.80;96424.00;5083135;28;20044;-65
2021/05/16 08:56:28;;;;;;;11.20;1.65;;;14.20;99.90;;;13.03;71.24;96432.59;5071341;28;20468;-65
2021/05/16 08:58:55;;;;;;;16.70;2.03;;;14.40;99.90;;;12.90;70.95;96425.63;5071638;28;20053;-65
2021/05/16 09:01:24;;;;;;;13.88;1.70;;;14.00;99.90;;;11.81;71.38;96456.41;5070370;28;20040;-65
2021/05/16 09:03:52;;;;;;;12.60;1.35;;;13.80;99.90;;;11.91;72.07;96435.88;5073959;28;20048;-65
2021/05/16 09:06:34;;;;;;;7.75;1.10;;;13.50;99.90;;;12.04;72.39;96433.28;5087725;28;20067;-65
2021/05/16 09:09:32;;;;;;;13.25;1.95;;;13.30;99.90;;;12.42;70.77;96432.47;5074211;28;20065;-65
2021/05/16 09:12:17;;;;;;;7.82;1.55;;;13.70;99.90;;;13.51;67.37;96430.88;5087611;28;20113;-66
2021/05/16 09:15:00;;;;;;;12.98;1.95;;;14.30;99.90;;;14.31;63.65;96396.25;5088374;28;20040;-65
2021/05/16 09:17:34;;;;;;;8.63;1.42;;;14.90;99.90;;;13.44;64.77;96427.06;5089581;28;20514;-65
2021/05/16 09:20:08;;;;;;;9.40;1.60;;;15.10;99.90;;;13.95;64.60;96412.91;5076520;28;20056;-65
2021/05/16 09:22:39;;;;;;;15.88;2.00;;;15.80;99.90;;;13.62;64.13;96411.88;5072431;28;20048;-65
2021/05/16 09:25:14;;;;;;;9.25;1.30;;;15.50;99.90;;;13.21;63.16;96404.41;5072805;28;20037;-65
2021/05/16 09:27:49;;;;;;;8.60;0.90;;;15.30;99.90;;;12.79;62.14;96396.09;5076055;28;20385;-65
2021/05/16 09:30:19;;;;;;;10.20;1.33;;;14.50;99.90;;;12.20;63.26;96425.28;5084984;28;20040;-65
2021/05/16 09:32:58;;;;;;;15.45;1.77;;;14.20;99.90;;;12.02;63.13;96429.97;5090197;28;20040;-65
2021/05/16 09:35:36;;;;;;;10.65;1.63;;;13.80;99.90;;;11.63;66.13;96427.28;5073538;28;20420;-65
2021/05/16 09:38:15;;;;;;;7.50;1.25;;;13.40;99.90;;;11.02;70.24;96431.19;5073961;28;20515;-65
2021/05/16 09:40:50;;;;;;;10.30;1.17;;;12.70;99.90;;;12.20;69.22;96423.53;5082096;28;20074;-65
2021/05/16 09:43:31;;;;;;;11.30;1.42;;;12.80;99.90;;;12.49;68.27;96418.09;5077637;28;20504;-66
2021/05/16 09:46:05;;;;;;;5.18;0.93;;;13.60;99.90;;;12.01;67.47;96436.94;5082990;28;20085;-65
2021/05/16 09:48:42;;;;;;;6.57;1.25;;;13.80;99.90;;;11.21;71.84;96415.28;5087438;28;20048;-65
2021/05/16 09:51:23;;;;;;;7.93;1.10;;;13.60;99.90;;;11.77;71.05;96428.13;5077317;28;20044;-65
2021/05/16 09:54:06;;;;;;;9.82;1.70;;;13.30;99.90;;;11.67;70.83;96418.31;5069732;28;20411;-65
2021/05/16 09:56:44;;;;;;;8.45;1.85;;;13.80;99.90;;;12.54;68.13;96429.03;5071652;28;20048;-65
2021/05/16 09:59:12;;;;;;;9.95;1.90;;;14.30;99.90;;;13.02;68.53;96412.69;5073728;28;20189;-65
2021/05/16 10:01:39;;;;;;;7.65;1.52;;;14.70;99.90;;;12.57;68.98;96426.22;5085592;28;20069;-65
2021/05/16 10:04:08;;;;;;;7.68;1.70;;;14.70;99.90;;;12.93;67.58;96425.44;5080680;28;20052;-65
2021/05/16 10:06:35;;;;;;;8.95;1.42;;;15.00;99.90;;;13.40;63.49;96389.13;5071540;28;20111;-65
2021/05/16 10:09:04;;;;;;;10.35;1.40;;;15.30;99.90;;;12.89;63.95;96412.75;5071125;28;20381;-65
2021/05/16 10:11:31;;;;;;;11.25;1.83;;;14.80;99.90;;;12.65;67.43;96415.28;5082309;28;20052;-65
2021/05/16 10:14:21;;;;;;;11.30;2.17;;;14.50;99.90;;;12.20;69.74;96422.69;5076121;28;20037;-65
2021/05/16 10:16:49;;;;;;;18.33;1.85;;;14.40;99.90;;;11.98;69.34;96426.75;5062752;28;20048;-65
2021/05/16 10:19:21;;;;;;;7.40;1.30;;;14.00;99.90;;;12.09;68.13;96419.06;5086637;28;20040;-65
2021/05/16 10:22:16;;;;;;;9.40;1.33;;;13.80;99.90;;;11.90;67.85;96413.41;5070723;28;20040;-65
2021/05/16 10:24:49;;;;;;;12.90;1.75;;;13.70;99.90;;;11.72;69.50;96403.28;5084770;28;20055;-65
2021/05/16 10:27:37;;;;;;;10.30;1.55;;;13.80;99.90;;;12.19;68.07;96395.84;5086085;28;20044;-65
2021/05/16 10:30:07;;;;;;;7.00;1.25;;;13.60;99.90;;;12.73;67.42;96392.97;5071177;28;20086;-65
2021/05/16 10:32:38;;;;;;;9.38;1.67;;;14.00;99.90;;;12.62;66.99;96389.47;5076915;28;20051;-65
2021/05/16 10:35:11;;;;;;;8.60;1.60;;;14.40;99.90;;;13.10;63.88;96407.78;5075611;28;20037;-65